createdAt,value
2018-05-18T00:00:22.066Z,0.00
2018-05-18T00:01:22.056Z,0.00
2018-05-18T00:02:22.043Z,0.00
2018-05-18T00:03:22.001Z,0.00
2018-05-18T00:04:21.998Z,0.00
2018-05-18T00:05:21.976Z,0.00
2018-05-18T00:06:21.963Z,0.00
2018-05-18T00:07:21.925Z,0.00
2018-05-18T00:08:21.919Z,0.00
2018-05-18T00:09:21.896Z,0.00
2018-05-18T00:10:21.903Z,0.00
2018-05-18T00:11:21.865Z,0.00
2018-05-18T00:12:21.826Z,0.00
2018-05-18T00:13:21.813Z,0.00
2018-05-18T00:14:21.806Z,0.00
2018-05-18T00:15:21.769Z,0.00
2018-05-18T00:16:21.769Z,0.00
2018-05-18T00:17:21.757Z,0.00
2018-05-18T00:18:21.737Z,0.00
2018-05-18T00:19:21.729Z,0.00
2018-05-18T00:20:21.673Z,0.00
2018-05-18T00:21:21.670Z,0.00
2018-05-18T00:22:21.650Z,0.00
2018-05-18T00:23:21.625Z,0.00
2018-05-18T00:24:21.606Z,0.00
2018-05-18T00:25:21.585Z,0.00
2018-05-18T00:26:21.575Z,0.00
2018-05-18T00:27:21.556Z,0.00
2018-05-18T00:28:21.538Z,0.00
2018-05-18T00:29:21.524Z,0.00
2018-05-18T00:30:21.489Z,0.00
2018-05-18T00:31:21.474Z,0.00
2018-05-18T00:32:21.457Z,0.00
2018-05-18T00:33:21.441Z,0.00
2018-05-18T00:34:21.413Z,0.00
2018-05-18T00:35:21.394Z,0.00
2018-05-18T00:36:21.365Z,0.00
2018-05-18T00:37:21.356Z,0.00
2018-05-18T00:38:21.347Z,0.00
2018-05-18T00:39:21.324Z,0.00
2018-05-18T00:40:21.308Z,0.00
2018-05-18T00:41:21.269Z,0.00
2018-05-18T00:42:21.263Z,0.00
2018-05-18T00:43:21.248Z,0.00
2018-05-18T00:44:21.228Z,0.00
2018-05-18T00:45:21.195Z,0.00
2018-05-18T00:46:21.186Z,0.00
2018-05-18T00:47:21.163Z,0.00
2018-05-18T00:48:21.154Z,0.00
2018-05-18T00:49:21.119Z,0.00
2018-05-18T00:50:21.105Z,0.00
2018-05-18T00:51:21.084Z,0.00
2018-05-18T00:52:21.061Z,0.00
2018-05-18T00:53:21.042Z,0.00
2018-05-18T00:54:21.039Z,0.00
2018-05-18T00:55:21.016Z,0.00
2018-05-18T00:56:20.999Z,0.00
2018-05-18T00:57:20.969Z,0.00
2018-05-18T00:58:20.944Z,0.00
2018-05-18T00:59:20.943Z,0.00
2018-05-18T01:00:20.922Z,0.00
2018-05-18T01:01:20.877Z,0.00
2018-05-18T01:02:20.877Z,0.00
2018-05-18T01:03:20.848Z,0.00
2018-05-18T01:04:20.832Z,0.00
2018-05-18T01:05:20.817Z,0.00
2018-05-18T01:06:20.784Z,0.00
2018-05-18T01:07:20.771Z,0.00
2018-05-18T01:08:20.752Z,0.00
2018-05-18T01:09:20.745Z,0.00
2018-05-18T01:10:20.716Z,0.00
2018-05-18T01:11:20.695Z,0.00
2018-05-18T01:12:20.668Z,0.00
2018-05-18T01:13:20.656Z,0.00
2018-05-18T01:14:20.653Z,0.00
2018-05-18T01:15:20.637Z,0.00
2018-05-18T01:16:20.602Z,0.00
2018-05-18T01:17:20.583Z,0.00
2018-05-18T01:18:20.557Z,0.00
2018-05-18T01:19:20.534Z,0.00
2018-05-18T01:20:20.515Z,0.00
2018-05-18T01:21:20.496Z,0.00
2018-05-18T01:22:20.477Z,0.00
2018-05-18T01:23:20.454Z,0.00
2018-05-18T01:24:20.451Z,0.00
2018-05-18T01:25:20.429Z,0.00
2018-05-18T01:26:20.394Z,0.00
2018-05-18T01:27:20.396Z,0.00
2018-05-18T01:28:20.364Z,0.00
2018-05-18T01:29:20.343Z,0.00
2018-05-18T01:30:20.326Z,0.00
2018-05-18T01:31:20.297Z,0.00
2018-05-18T01:32:20.265Z,0.00
2018-05-18T01:33:20.278Z,0.00
2018-05-18T01:34:20.249Z,0.00
2018-05-18T01:35:20.230Z,0.00
2018-05-18T01:36:20.214Z,0.00
2018-05-18T01:37:20.174Z,0.00
2018-05-18T01:38:20.167Z,0.00
2018-05-18T01:39:21.100Z,0.00
2018-05-18T01:40:20.139Z,0.00
2018-05-18T01:41:20.107Z,0.00
2018-05-18T01:42:20.091Z,0.00
2018-05-18T01:43:20.056Z,0.00
2018-05-18T01:44:20.043Z,0.00
2018-05-18T01:45:20.007Z,0.00
2018-05-18T01:46:19.986Z,0.00
2018-05-18T01:47:19.969Z,0.00
2018-05-18T01:48:19.972Z,0.00
2018-05-18T01:49:19.924Z,0.00
2018-05-18T01:50:19.905Z,0.00
2018-05-18T01:51:19.901Z,0.00
2018-05-18T01:52:19.860Z,0.00
2018-05-18T01:53:19.854Z,0.00
2018-05-18T01:54:19.839Z,0.00
2018-05-18T01:55:19.807Z,0.00
2018-05-18T01:56:19.784Z,0.00
2018-05-18T01:57:19.768Z,0.00
2018-05-18T01:58:19.749Z,0.00
2018-05-18T01:59:19.724Z,0.00
2018-05-18T02:00:19.714Z,0.00
2018-05-18T02:01:19.691Z,0.00
2018-05-18T02:02:19.685Z,0.00
2018-05-18T02:03:19.647Z,0.00
2018-05-18T02:04:19.627Z,0.00
2018-05-18T02:05:19.646Z,0.00
2018-05-18T02:06:19.615Z,0.00
2018-05-18T02:07:19.605Z,0.00
2018-05-18T02:08:19.568Z,0.00
2018-05-18T02:09:19.554Z,0.00
2018-05-18T02:10:19.535Z,0.00
2018-05-18T02:11:19.561Z,0.00
2018-05-18T02:12:19.506Z,0.00
2018-05-18T02:13:19.480Z,0.00
2018-05-18T02:14:19.449Z,0.00
2018-05-18T02:15:19.433Z,0.00
2018-05-18T02:16:19.414Z,0.00
2018-05-18T02:17:19.404Z,0.00
2018-05-18T02:18:19.392Z,0.00
2018-05-18T02:19:19.350Z,0.00
2018-05-18T02:20:19.331Z,0.00
2018-05-18T02:21:19.337Z,0.00
2018-05-18T02:22:19.289Z,0.00
2018-05-18T02:23:19.283Z,0.00
2018-05-18T02:24:19.257Z,0.00
2018-05-18T02:25:19.255Z,0.00
2018-05-18T02:26:19.230Z,0.00
2018-05-18T02:27:19.200Z,0.00
2018-05-18T02:28:19.183Z,0.00
2018-05-18T02:29:19.164Z,0.00
2018-05-18T02:30:19.145Z,0.00
2018-05-18T02:31:19.125Z,0.00
2018-05-18T02:32:19.122Z,0.00
2018-05-18T02:33:19.071Z,0.00
2018-05-18T02:34:19.059Z,0.00
2018-05-18T02:35:19.049Z,0.00
2018-05-18T02:36:19.207Z,0.00
2018-05-18T02:37:18.995Z,0.00
2018-05-18T02:38:18.983Z,0.00
2018-05-18T02:39:18.960Z,0.00
2018-05-18T02:40:18.932Z,0.00
2018-05-18T02:41:18.909Z,0.00
2018-05-18T02:42:18.903Z,0.00
2018-05-18T02:43:18.887Z,0.00
2018-05-18T02:44:18.865Z,0.00
2018-05-18T02:45:18.829Z,0.00
2018-05-18T02:46:18.825Z,0.00
2018-05-18T02:47:18.787Z,0.00
2018-05-18T02:48:18.780Z,0.00
2018-05-18T02:49:18.767Z,0.00
2018-05-18T02:50:18.733Z,0.00
2018-05-18T02:51:18.706Z,0.00
2018-05-18T02:52:18.740Z,0.00
2018-05-18T02:53:18.667Z,0.00
2018-05-18T02:54:18.662Z,0.00
2018-05-18T02:55:18.739Z,0.00
2018-05-18T02:56:18.611Z,0.00
2018-05-18T02:57:18.595Z,0.00
2018-05-18T02:58:18.577Z,0.00
2018-05-18T02:59:18.587Z,4.00
2018-05-18T03:00:18.545Z,4.00
2018-05-18T03:01:18.534Z,4.00
2018-05-18T03:02:18.497Z,0.00
2018-05-18T03:03:18.488Z,4.00
2018-05-18T03:04:18.446Z,4.00
2018-05-18T03:05:18.443Z,4.00
2018-05-18T03:06:18.430Z,4.00
2018-05-18T03:07:18.394Z,4.00
2018-05-18T03:08:18.396Z,8.00
2018-05-18T03:09:18.346Z,8.00
2018-05-18T03:10:18.327Z,8.00
2018-05-18T03:11:18.303Z,8.00
2018-05-18T03:12:18.279Z,12.00
2018-05-18T03:13:18.290Z,12.00
2018-05-18T03:14:18.254Z,16.00
2018-05-18T03:15:18.267Z,20.00
2018-05-18T03:16:18.215Z,24.00
2018-05-18T03:17:18.193Z,28.00
2018-05-18T03:18:18.176Z,32.00
2018-05-18T03:19:18.164Z,36.00
2018-05-18T03:20:18.133Z,40.00
2018-05-18T03:21:18.109Z,48.00
2018-05-18T03:22:18.093Z,52.00
2018-05-18T03:23:18.074Z,56.00
2018-05-18T03:24:18.042Z,64.00
2018-05-18T03:25:18.039Z,72.00
2018-05-18T03:26:18.007Z,80.00
2018-05-18T03:27:17.991Z,92.00
2018-05-18T03:28:17.980Z,100.00
2018-05-18T03:29:17.973Z,116.00
2018-05-18T03:30:17.939Z,124.00
2018-05-18T03:31:17.920Z,140.00
2018-05-18T03:32:17.903Z,152.00
2018-05-18T03:33:17.886Z,168.00
2018-05-18T03:34:17.859Z,184.00
2018-05-18T03:35:17.852Z,200.00
2018-05-18T03:36:17.801Z,220.00
2018-05-18T03:37:17.798Z,236.00
2018-05-18T03:38:17.777Z,256.00
2018-05-18T03:39:17.736Z,280.00
2018-05-18T03:40:17.723Z,300.00
2018-05-18T03:41:17.713Z,320.00
2018-05-18T03:42:17.675Z,344.00
2018-05-18T03:43:17.675Z,368.00
2018-05-18T03:44:17.640Z,392.00
2018-05-18T03:45:17.627Z,420.00
2018-05-18T03:46:17.604Z,444.00
2018-05-18T03:47:17.576Z,472.00
2018-05-18T03:48:17.576Z,500.00
2018-05-18T03:49:17.542Z,528.00
2018-05-18T03:50:17.515Z,560.00
2018-05-18T03:51:17.587Z,588.00
2018-05-18T03:52:17.471Z,616.00
2018-05-18T03:53:17.457Z,652.00
2018-05-18T03:54:17.448Z,684.00
2018-05-18T03:55:17.448Z,716.00
2018-05-18T03:56:17.397Z,748.00
2018-05-18T03:57:17.387Z,780.00
2018-05-18T03:58:17.337Z,816.00
2018-05-18T03:59:17.324Z,848.00
2018-05-18T04:00:17.308Z,880.00
2018-05-18T04:01:17.279Z,916.00
2018-05-18T04:02:17.259Z,952.00
2018-05-18T04:03:17.278Z,984.00
2018-05-18T04:04:17.221Z,1024.00
2018-05-18T04:05:17.196Z,1060.00
2018-05-18T04:06:17.196Z,1092.00
2018-05-18T04:07:17.152Z,1128.00
2018-05-18T04:08:17.148Z,1164.00
2018-05-18T04:09:17.113Z,1204.00
2018-05-18T04:10:17.089Z,1240.00
2018-05-18T04:11:17.069Z,1272.00
2018-05-18T04:12:17.053Z,1304.00
2018-05-18T04:13:17.036Z,1340.00
2018-05-18T04:14:17.013Z,1372.00
2018-05-18T04:15:16.997Z,1408.00
2018-05-18T04:16:16.986Z,1440.00
2018-05-18T04:17:16.954Z,1480.00
2018-05-18T04:18:16.951Z,1516.00
2018-05-18T04:19:16.925Z,1552.00
2018-05-18T04:20:16.900Z,1588.00
2018-05-18T04:21:16.871Z,1628.00
2018-05-18T04:22:16.867Z,1664.00
2018-05-18T04:23:16.832Z,1700.00
2018-05-18T04:24:16.836Z,1732.00
2018-05-18T04:25:16.800Z,1768.00
2018-05-18T04:26:16.774Z,1804.00
2018-05-18T04:27:16.754Z,1840.00
2018-05-18T04:28:16.768Z,1872.00
2018-05-18T04:29:16.725Z,1912.00
2018-05-18T04:30:16.702Z,1940.00
2018-05-18T04:31:16.668Z,1976.00
2018-05-18T04:32:16.655Z,2004.00
2018-05-18T04:33:16.652Z,2032.00
2018-05-18T04:34:16.617Z,2068.00
2018-05-18T04:35:16.621Z,2096.00
2018-05-18T04:36:16.576Z,2128.00
2018-05-18T04:37:16.554Z,2156.00
2018-05-18T04:38:16.555Z,2192.00
2018-05-18T04:39:16.514Z,2224.00
2018-05-18T04:40:16.516Z,2260.00
2018-05-18T04:41:16.472Z,2296.00
2018-05-18T04:42:16.459Z,2328.00
2018-05-18T04:43:16.474Z,2356.00
2018-05-18T04:44:16.422Z,2392.00
2018-05-18T04:45:16.387Z,2428.00
2018-05-18T04:46:16.372Z,2472.00
2018-05-18T04:47:16.346Z,2504.00
2018-05-18T04:48:16.337Z,2536.00
2018-05-18T04:49:16.310Z,2572.00
2018-05-18T04:50:16.292Z,2612.00
2018-05-18T04:51:16.266Z,2640.00
2018-05-18T04:52:16.253Z,2668.00
2018-05-18T04:53:16.241Z,2700.00
2018-05-18T04:54:16.221Z,2728.00
2018-05-18T04:55:16.198Z,2764.00
2018-05-18T04:56:16.174Z,2804.00
2018-05-18T04:57:16.158Z,2844.00
2018-05-18T04:58:16.139Z,2876.00
2018-05-18T04:59:16.117Z,2908.00
2018-05-18T05:00:16.098Z,2928.00
2018-05-18T05:01:16.082Z,2964.00
2018-05-18T05:02:16.066Z,2996.00
2018-05-18T05:03:16.044Z,3028.00
2018-05-18T05:04:16.027Z,3056.00
2018-05-18T05:05:16.018Z,3080.00
2018-05-18T05:06:15.980Z,3104.00
2018-05-18T05:07:16.002Z,3128.00
2018-05-18T05:08:15.940Z,3156.00
2018-05-18T05:09:15.931Z,3180.00
2018-05-18T05:10:15.899Z,3212.00
2018-05-18T05:11:15.883Z,3244.00
2018-05-18T05:12:15.867Z,3288.00
2018-05-18T05:13:15.857Z,3328.00
2018-05-18T05:14:15.829Z,3360.00
2018-05-18T05:15:15.842Z,3392.00
2018-05-18T05:16:15.797Z,3428.00
2018-05-18T05:17:15.780Z,3460.00
2018-05-18T05:18:15.774Z,3508.00
2018-05-18T05:19:15.748Z,3544.00
2018-05-18T05:20:15.735Z,3588.00
2018-05-18T05:21:15.688Z,3732.00
2018-05-18T05:22:15.675Z,3672.00
2018-05-18T05:23:15.659Z,3696.00
2018-05-18T05:24:15.631Z,3752.00
2018-05-18T05:25:15.640Z,3796.00
2018-05-18T05:26:15.608Z,3836.00
2018-05-18T05:27:15.581Z,3884.00
2018-05-18T05:28:15.562Z,3924.00
2018-05-18T05:29:15.547Z,3944.00
2018-05-18T05:30:15.530Z,3964.00
2018-05-18T05:31:15.495Z,3976.00
2018-05-18T05:32:15.496Z,4004.00
2018-05-18T05:33:15.466Z,4044.00
2018-05-18T05:34:15.453Z,4080.00
2018-05-18T05:35:15.437Z,4116.00
2018-05-18T05:36:15.416Z,4140.00
2018-05-18T05:37:15.394Z,4184.00
2018-05-18T05:38:15.379Z,4228.00
2018-05-18T05:39:15.365Z,4284.00
2018-05-18T05:40:15.355Z,4324.00
2018-05-18T05:41:15.327Z,4372.00
2018-05-18T05:42:15.298Z,4440.00
2018-05-18T05:43:15.282Z,4528.00
2018-05-18T05:44:15.263Z,4644.00
2018-05-18T05:45:15.247Z,4764.00
2018-05-18T05:46:15.240Z,4896.00
2018-05-18T05:47:15.225Z,5020.00
2018-05-18T05:48:15.202Z,5140.00
2018-05-18T05:49:15.176Z,5272.00
2018-05-18T05:50:15.161Z,5400.00
2018-05-18T05:51:15.142Z,5788.00
2018-05-18T05:52:15.122Z,6148.00
2018-05-18T05:53:15.113Z,6400.00
2018-05-18T05:54:15.094Z,6820.00
2018-05-18T05:55:15.078Z,7220.00
2018-05-18T05:56:15.049Z,7668.00
2018-05-18T05:57:15.040Z,8092.00
2018-05-18T05:58:15.023Z,8748.00
2018-05-18T05:59:15.007Z,9456.00
2018-05-18T06:00:15.001Z,9732.00
2018-05-18T06:01:14.986Z,9796.00
2018-05-18T06:02:14.953Z,9684.00
2018-05-18T06:03:14.934Z,9920.00
2018-05-18T06:04:14.923Z,9840.00
2018-05-18T06:05:14.981Z,9872.00
2018-05-18T06:06:14.886Z,10088.00
2018-05-18T06:07:14.870Z,10316.00
2018-05-18T06:08:14.860Z,10516.00
2018-05-18T06:09:14.835Z,10692.00
2018-05-18T06:10:14.822Z,10764.00
2018-05-18T06:11:14.809Z,10716.00
2018-05-18T06:12:14.799Z,11040.00
2018-05-18T06:13:14.775Z,11512.00
2018-05-18T06:14:14.764Z,11764.00
2018-05-18T06:15:14.751Z,11976.00
2018-05-18T06:16:14.733Z,12172.00
2018-05-18T06:17:14.727Z,12156.00
2018-05-18T06:18:14.707Z,12084.00
2018-05-18T06:19:14.682Z,11888.00
2018-05-18T06:20:14.672Z,11928.00
2018-05-18T06:21:14.653Z,12424.00
2018-05-18T06:22:14.649Z,12592.00
2018-05-18T06:23:14.632Z,13012.00
2018-05-18T06:24:14.611Z,13108.00
2018-05-18T06:25:14.598Z,13340.00
2018-05-18T06:26:14.587Z,13532.00
2018-05-18T06:27:14.574Z,13564.00
2018-05-18T06:28:14.561Z,13428.00
2018-05-18T06:29:14.540Z,12980.00
2018-05-18T06:30:14.529Z,12840.00
2018-05-18T06:31:14.532Z,13156.00
2018-05-18T06:32:14.504Z,13284.00
2018-05-18T06:33:14.487Z,13304.00
2018-05-18T06:34:14.478Z,13360.00
2018-05-18T06:35:14.606Z,13216.00
2018-05-18T06:36:14.452Z,13464.00
2018-05-18T06:37:14.433Z,13580.00
2018-05-18T06:38:14.414Z,13512.00
2018-05-18T06:39:14.413Z,13836.00
2018-05-18T06:40:14.392Z,14096.00
2018-05-18T06:41:14.446Z,14440.00
2018-05-18T06:42:14.378Z,14892.00
2018-05-18T06:43:14.348Z,15300.00
2018-05-18T06:44:14.339Z,15644.00
2018-05-18T06:45:14.328Z,15700.00
2018-05-18T06:46:14.328Z,15948.00
2018-05-18T06:47:14.306Z,16132.00
2018-05-18T06:48:14.283Z,16068.00
2018-05-18T06:49:14.271Z,15772.00
2018-05-18T06:50:14.267Z,16188.00
2018-05-18T06:51:14.248Z,16256.00
2018-05-18T06:52:14.248Z,16028.00
2018-05-18T06:53:14.218Z,15796.00
2018-05-18T06:54:14.213Z,15668.00
2018-05-18T06:55:14.206Z,15808.00
2018-05-18T06:56:14.182Z,15960.00
2018-05-18T06:57:14.172Z,16536.00
2018-05-18T06:58:14.155Z,17184.00
2018-05-18T06:59:14.146Z,16820.00
2018-05-18T07:00:14.133Z,16800.00
2018-05-18T07:01:14.115Z,16592.00
2018-05-18T07:02:14.110Z,16992.00
2018-05-18T07:03:14.101Z,16456.00
2018-05-18T07:04:14.079Z,15892.00
2018-05-18T07:05:14.072Z,16332.00
2018-05-18T07:06:14.059Z,16568.00
2018-05-18T07:07:14.046Z,16472.00
2018-05-18T07:08:14.034Z,16332.00
2018-05-18T07:09:14.028Z,16072.00
2018-05-18T07:10:14.015Z,15892.00
2018-05-18T07:11:14.002Z,16220.00
2018-05-18T07:12:13.985Z,16772.00
2018-05-18T07:13:13.986Z,17632.00
2018-05-18T07:14:13.963Z,17728.00
2018-05-18T07:15:13.953Z,17728.00
2018-05-18T07:16:14.022Z,17920.00
2018-05-18T07:17:13.928Z,17920.00
2018-05-18T07:18:13.921Z,17824.00
2018-05-18T07:19:13.906Z,18112.00
2018-05-18T07:20:13.896Z,18048.00
2018-05-18T07:21:13.887Z,17920.00
2018-05-18T07:22:13.877Z,18112.00
2018-05-18T07:23:13.865Z,17824.00
2018-05-18T07:24:13.851Z,17984.00
2018-05-18T07:25:13.841Z,18112.00
2018-05-18T07:26:13.829Z,18400.00
2018-05-18T07:27:13.822Z,19040.00
2018-05-18T07:28:13.803Z,17984.00
2018-05-18T07:29:13.797Z,17920.00
2018-05-18T07:30:13.783Z,17140.00
2018-05-18T07:31:13.772Z,16608.00
2018-05-18T07:32:13.766Z,16748.00
2018-05-18T07:33:13.750Z,16632.00
2018-05-18T07:34:13.743Z,17012.00
2018-05-18T07:35:13.731Z,16188.00
2018-05-18T07:36:13.729Z,16044.00
2018-05-18T07:37:13.770Z,16868.00
2018-05-18T07:38:13.699Z,19040.00
2018-05-18T07:39:13.689Z,21216.00
2018-05-18T07:40:13.674Z,22368.00
2018-05-18T07:41:13.665Z,23648.00
2018-05-18T07:42:13.658Z,22976.00
2018-05-18T07:43:13.642Z,22144.00
2018-05-18T07:44:13.642Z,19936.00
2018-05-18T07:45:13.636Z,17824.00
2018-05-18T07:46:13.618Z,16264.00
2018-05-18T07:47:13.609Z,15528.00
2018-05-18T07:48:13.597Z,14484.00
2018-05-18T07:49:13.587Z,13908.00
2018-05-18T07:50:13.654Z,12228.00
2018-05-18T07:51:13.568Z,9716.00
2018-05-18T07:52:13.593Z,8220.00
2018-05-18T07:53:13.549Z,7736.00
2018-05-18T07:54:13.540Z,7976.00
2018-05-18T07:55:13.550Z,8776.00
2018-05-18T07:56:13.523Z,10028.00
2018-05-18T07:57:13.511Z,11040.00
2018-05-18T07:58:13.492Z,12232.00
2018-05-18T07:59:13.486Z,13184.00
2018-05-18T08:00:13.478Z,14076.00
2018-05-18T08:01:13.464Z,15456.00
2018-05-18T08:02:13.460Z,16916.00
2018-05-18T08:03:13.441Z,18464.00
2018-05-18T08:04:13.434Z,19840.00
2018-05-18T08:05:13.429Z,21536.00
2018-05-18T08:06:13.409Z,22336.00
2018-05-18T08:07:13.393Z,23456.00
2018-05-18T08:08:13.387Z,22976.00
2018-05-18T08:09:13.396Z,21952.00
2018-05-18T08:10:13.367Z,20704.00
2018-05-18T08:11:13.358Z,20352.00
2018-05-18T08:12:13.348Z,21728.00
2018-05-18T08:13:13.339Z,23040.00
2018-05-18T08:14:13.326Z,24352.00
2018-05-18T08:15:13.448Z,25408.00
2018-05-18T08:16:13.308Z,25856.00
2018-05-18T08:17:13.298Z,24960.00
2018-05-18T08:18:13.288Z,22144.00
2018-05-18T08:19:13.279Z,18272.00
2018-05-18T08:20:13.267Z,15840.00
2018-05-18T08:21:13.256Z,14612.00
2018-05-18T08:22:13.253Z,14308.00
2018-05-18T08:23:13.246Z,15064.00
2018-05-18T08:24:13.240Z,17472.00
2018-05-18T08:25:13.230Z,18816.00
2018-05-18T08:26:13.221Z,20608.00
2018-05-18T08:27:13.272Z,21664.00
2018-05-18T08:28:13.202Z,22656.00
2018-05-18T08:29:13.192Z,22816.00
2018-05-18T08:30:13.182Z,20480.00
2018-05-18T08:31:13.169Z,19360.00
2018-05-18T08:32:13.163Z,18944.00
2018-05-18T08:33:13.159Z,20864.00
2018-05-18T08:34:13.150Z,21984.00
2018-05-18T08:35:13.134Z,21856.00
2018-05-18T08:36:13.131Z,18720.00
2018-05-18T08:37:13.125Z,15636.00
2018-05-18T08:38:13.117Z,14684.00
2018-05-18T08:39:13.124Z,14696.00
2018-05-18T08:40:13.102Z,14688.00
2018-05-18T08:41:13.090Z,14684.00
2018-05-18T08:42:13.085Z,15796.00
2018-05-18T08:43:13.075Z,17184.00
2018-05-18T08:44:13.055Z,17088.00
2018-05-18T08:45:13.054Z,17184.00
2018-05-18T08:46:13.038Z,20576.00
2018-05-18T08:47:13.049Z,19168.00
2018-05-18T08:48:13.022Z,21376.00
2018-05-18T08:49:13.016Z,23424.00
2018-05-18T08:50:13.077Z,29856.00
2018-05-18T08:51:12.998Z,30688.00
2018-05-18T08:52:12.988Z,31712.00
2018-05-18T08:53:12.980Z,31808.00
2018-05-18T08:54:12.979Z,32192.00
2018-05-18T08:55:12.960Z,32224.00
2018-05-18T08:56:12.950Z,30368.00
2018-05-18T08:57:12.943Z,28704.00
2018-05-18T08:58:12.931Z,27392.00
2018-05-18T08:59:12.925Z,29088.00
2018-05-18T09:00:12.918Z,36416.00
2018-05-18T09:01:12.909Z,43392.00
2018-05-18T09:02:12.904Z,33056.00
2018-05-18T09:03:12.896Z,29984.00
2018-05-18T09:04:12.886Z,27136.00
2018-05-18T09:05:12.906Z,28384.00
2018-05-18T09:06:12.874Z,29184.00
2018-05-18T09:07:12.867Z,88928.00
2018-05-18T09:08:12.855Z,28960.00
2018-05-18T09:09:12.858Z,25632.00
2018-05-18T09:10:12.840Z,31808.00
2018-05-18T09:11:12.826Z,98528.00
2018-05-18T09:12:12.826Z,81472.00
2018-05-18T09:13:12.817Z,74336.00
2018-05-18T09:14:12.807Z,99040.00
2018-05-18T09:15:12.803Z,94464.00
2018-05-18T09:16:12.794Z,93312.00
2018-05-18T09:17:12.791Z,91040.00
2018-05-18T09:18:12.781Z,97056.00
2018-05-18T09:19:12.771Z,30240.00
2018-05-18T09:20:12.768Z,86848.00
2018-05-18T09:21:12.761Z,113952.00
2018-05-18T09:22:12.753Z,111840.00
2018-05-18T09:23:12.743Z,44192.00
2018-05-18T09:24:12.744Z,30848.00
2018-05-18T09:25:12.730Z,55136.00
2018-05-18T09:26:12.726Z,30944.00
2018-05-18T09:27:12.715Z,54976.00
2018-05-18T09:28:12.708Z,70336.00
2018-05-18T09:29:12.705Z,95456.00
2018-05-18T09:30:12.695Z,97568.00
2018-05-18T09:31:12.689Z,99584.00
2018-05-18T09:32:12.678Z,105088.00
2018-05-18T09:33:12.675Z,84928.00
2018-05-18T09:34:12.684Z,36064.00
2018-05-18T09:35:12.666Z,103936.00
2018-05-18T09:36:12.691Z,86560.00
2018-05-18T09:37:12.650Z,26752.00
2018-05-18T09:38:12.640Z,22464.00
2018-05-18T09:39:12.634Z,20544.00
2018-05-18T09:40:12.621Z,20256.00
2018-05-18T09:41:12.621Z,20960.00
2018-05-18T09:42:12.609Z,30240.00
2018-05-18T09:43:12.606Z,67680.00
2018-05-18T09:44:12.598Z,110272.00
2018-05-18T09:45:12.602Z,109152.00
2018-05-18T09:46:12.586Z,99872.00
2018-05-18T09:47:12.576Z,108000.00
2018-05-18T09:48:12.575Z,107616.00
2018-05-18T09:49:12.564Z,109376.00
2018-05-18T09:50:12.557Z,113568.00
2018-05-18T09:51:12.554Z,113248.00
2018-05-18T09:52:12.546Z,117088.00
2018-05-18T09:53:13.758Z,48640.00
2018-05-18T09:54:12.576Z,47232.00
2018-05-18T09:55:12.768Z,78240.00
2018-05-18T09:56:12.517Z,56704.00
2018-05-18T09:57:12.513Z,59840.00
2018-05-18T09:58:12.522Z,44544.00
2018-05-18T09:59:12.509Z,36640.00
2018-05-18T10:00:12.497Z,45920.00
2018-05-18T10:01:12.496Z,49408.00
2018-05-18T10:02:12.496Z,81216.00
2018-05-18T10:03:12.486Z,109184.00
2018-05-18T10:04:12.484Z,109024.00
2018-05-18T10:05:12.477Z,109952.00
2018-05-18T10:06:12.497Z,109440.00
2018-05-18T10:07:12.465Z,110368.00
2018-05-18T10:08:12.461Z,108960.00
2018-05-18T10:09:12.458Z,108256.00
2018-05-18T10:10:12.455Z,111584.00
2018-05-18T10:11:12.448Z,114688.00
2018-05-18T10:12:12.439Z,119264.00
2018-05-18T10:13:12.437Z,122880.00
2018-05-18T10:14:12.436Z,113632.00
2018-05-18T10:15:12.436Z,103072.00
2018-05-18T10:16:12.424Z,110880.00
2018-05-18T10:17:12.416Z,101536.00
2018-05-18T10:18:12.416Z,26688.00
2018-05-18T10:19:12.416Z,26880.00
2018-05-18T10:20:12.404Z,32160.00
2018-05-18T10:21:12.403Z,127136.00
2018-05-18T10:22:12.403Z,124896.00
2018-05-18T10:23:12.404Z,52096.00
2018-05-18T10:24:12.391Z,33280.00
2018-05-18T10:25:12.381Z,30464.00
2018-05-18T10:26:12.382Z,26976.00
2018-05-18T10:27:12.375Z,24800.00
2018-05-18T10:28:12.375Z,23072.00
2018-05-18T10:29:12.375Z,21696.00
2018-05-18T10:30:12.366Z,20768.00
2018-05-18T10:31:12.365Z,20192.00
2018-05-18T10:32:12.356Z,19872.00
2018-05-18T10:33:12.356Z,19936.00
2018-05-18T10:34:12.349Z,20704.00
2018-05-18T10:35:12.343Z,21984.00
2018-05-18T10:36:12.340Z,23648.00
2018-05-18T10:37:12.331Z,25952.00
2018-05-18T10:38:12.327Z,32256.00
2018-05-18T10:39:12.321Z,35328.00
2018-05-18T10:40:12.320Z,41216.00
2018-05-18T10:41:12.452Z,99136.00
2018-05-18T10:42:12.308Z,92192.00
2018-05-18T10:43:12.296Z,42336.00
2018-05-18T10:44:12.296Z,74720.00
2018-05-18T10:45:12.286Z,123168.00
2018-05-18T10:46:12.290Z,128224.00
2018-05-18T10:47:12.276Z,127200.00
2018-05-18T10:48:12.276Z,122464.00
2018-05-18T10:49:12.280Z,118944.00
2018-05-18T10:50:12.264Z,118688.00
2018-05-18T10:51:12.257Z,120096.00
2018-05-18T10:52:12.257Z,121056.00
2018-05-18T10:53:12.300Z,125856.00
2018-05-18T10:54:12.245Z,126336.00
2018-05-18T10:55:12.248Z,130784.00
2018-05-18T10:56:12.246Z,72384.00
2018-05-18T10:57:12.238Z,51552.00
2018-05-18T10:58:12.235Z,97376.00
2018-05-18T10:59:12.235Z,50592.00
2018-05-18T11:00:12.235Z,102752.00
2018-05-18T11:01:12.278Z,116288.00
2018-05-18T11:02:12.232Z,137344.00
2018-05-18T11:03:12.228Z,118976.00
2018-05-18T11:04:12.231Z,144256.00
2018-05-18T11:05:12.286Z,35072.00
2018-05-18T11:06:12.229Z,29152.00
2018-05-18T11:07:12.225Z,25184.00
2018-05-18T11:08:12.225Z,22816.00
2018-05-18T11:09:12.226Z,21536.00
2018-05-18T11:10:12.222Z,21248.00
2018-05-18T11:11:12.219Z,22144.00
2018-05-18T11:12:12.225Z,23680.00
2018-05-18T11:13:12.216Z,26816.00
2018-05-18T11:14:12.320Z,30208.00
2018-05-18T11:15:12.212Z,33536.00
2018-05-18T11:16:12.210Z,46016.00
2018-05-18T11:17:12.203Z,137056.00
2018-05-18T11:18:12.203Z,42240.00
2018-05-18T11:19:12.194Z,28768.00
2018-05-18T11:20:12.191Z,24768.00
2018-05-18T11:21:12.198Z,22944.00
2018-05-18T11:22:12.187Z,22368.00
2018-05-18T11:23:12.178Z,21952.00
2018-05-18T11:24:12.178Z,22688.00
2018-05-18T11:25:12.175Z,26176.00
2018-05-18T11:26:12.255Z,36992.00
2018-05-18T11:27:12.165Z,125312.00
2018-05-18T11:28:12.152Z,124384.00
2018-05-18T11:29:12.159Z,121568.00
2018-05-18T11:30:12.191Z,117600.00
2018-05-18T11:31:12.147Z,122048.00
2018-05-18T11:32:12.136Z,123040.00
2018-05-18T11:33:12.145Z,121440.00
2018-05-18T11:34:12.140Z,85664.00
2018-05-18T11:35:12.136Z,116256.00
2018-05-18T11:36:12.130Z,120128.00
2018-05-18T11:37:12.136Z,116768.00
2018-05-18T11:38:12.136Z,115936.00
2018-05-18T11:39:12.243Z,69312.00
2018-05-18T11:40:12.133Z,108960.00
2018-05-18T11:41:12.130Z,120864.00
2018-05-18T11:42:12.130Z,122080.00
2018-05-18T11:43:12.138Z,124096.00
2018-05-18T11:44:12.140Z,132704.00
2018-05-18T11:45:12.133Z,127168.00
2018-05-18T11:46:12.137Z,116544.00
2018-05-18T11:47:12.140Z,116864.00
2018-05-18T11:48:12.140Z,98528.00
2018-05-18T11:49:12.143Z,35456.00
2018-05-18T11:50:12.149Z,95232.00
2018-05-18T11:51:12.153Z,107776.00
2018-05-18T11:52:12.168Z,112704.00
2018-05-18T11:53:12.165Z,115808.00
2018-05-18T11:54:12.168Z,108800.00
2018-05-18T11:55:12.165Z,105600.00
2018-05-18T11:56:12.169Z,53920.00
2018-05-18T11:57:12.179Z,115360.00
2018-05-18T11:58:12.179Z,116992.00
2018-05-18T11:59:12.188Z,111392.00
2018-05-18T12:00:12.185Z,110752.00
2018-05-18T12:01:12.194Z,106912.00
2018-05-18T12:02:12.195Z,112384.00
2018-05-18T12:03:12.197Z,115520.00
2018-05-18T12:04:12.203Z,125920.00
2018-05-18T12:05:12.217Z,127296.00
2018-05-18T12:06:12.210Z,96128.00
2018-05-18T12:07:12.219Z,62528.00
2018-05-18T12:08:12.301Z,49728.00
2018-05-18T12:09:12.229Z,48256.00
2018-05-18T12:10:12.229Z,47648.00
2018-05-18T12:11:12.235Z,45472.00